Terminal Aerodrome Forecast
Issued by NWS

Home | Current Version | Previous Version | Text Only | Print | Product List | Glossary On
Versions: 1 2 3 4 5 6 7 8 9 10 11 12 13 14
000
FTUS45 KRIW 241506 AAB
TAFPNA
TAF AMD
KPNA 241506Z 2415/2512 VRB06KT 6SM -SN BR BKN035
      TEMPO 2415/2417 3SM -SN BR BKN015
     FM241700 32009KT P6SM VCSH SCT020 BKN035
     FM242200 31011KT P6SM SCT050
      AMD LTD TO CLD VIS AND WIND=

USA.gov is the U.S. government's official web portal to all federal, state and local government web resources and services.